Time;durP1;ratioP1;P1;durP2;ratioP2;P2;SDS_P1;SDS_P2;PMS_P1;PMS_P2;Temp;Humidity;BMP_temperature;BMP_pressure;BME280_temperature;BME280_humidity;BME280_pressure;Samples;Min_cycle;Max_cycle;Signal;HPM_P1;HPM_P2
2023/04/05 00:01:24;;;;;;;8.98;4.55;;;;;;;;;;5094353;28;20467;-88
2023/04/05 00:03:56;;;;;;;6.82;4.20;;;;;;;;;;5094093;28;20019;-87
2023/04/05 00:06:25;;;;;;;6.55;3.90;;;;;;;;;;5076847;28;20032;-85
2023/04/05 00:08:54;;;;;;;8.10;4.15;;;;;;;;;;5062589;28;20028;-86
2023/04/05 00:11:21;;;;;;;6.35;3.97;;;;;;;;;;5093452;28;20028;-85
2023/04/05 00:13:47;;;;;;;8.38;4.00;;;;;;;;;;5095284;28;20111;-86
2023/04/05 00:16:12;;;;;;;7.47;4.10;;;;;;;;;;5059338;28;20043;-86
2023/04/05 00:18:38;;;;;;;6.43;3.88;;;;;;;;;;5076205;28;20040;-86
2023/04/05 00:21:04;;;;;;;5.70;3.60;;;;;;;;;;5093922;28;20438;-86
2023/04/05 00:23:36;;;;;;;6.75;3.50;;;;;;;;;;5076993;28;20032;-85
2023/04/05 00:26:01;;;;;;;9.10;3.53;;;;;;;;;;5094580;28;20032;-85
2023/04/05 00:28:27;;;;;;;6.15;3.80;;;;;;;;;;5094696;28;20032;-85
2023/04/05 00:30:52;;;;;;;6.50;3.63;;;;;;;;;;5095976;28;20368;-85
2023/04/05 00:33:18;;;;;;;6.28;3.35;;;;;;;;;;5111300;28;20036;-84
2023/04/05 00:35:43;;;;;;;5.60;3.15;;;;;;;;;;5076085;28;20429;-84
2023/04/05 00:38:08;;;;;;;7.75;3.97;;;;;;;;;;5061924;28;20040;-85
2023/04/05 00:40:35;;;;;;;7.80;3.65;;;;;;;;;;5080246;28;20101;-84
2023/04/05 00:43:00;;;;;;;5.80;3.67;;;;;;;;;;5063147;28;20419;-86
2023/04/05 00:45:26;;;;;;;6.85;3.38;;;;;;;;;;5079976;28;20188;-86
2023/04/05 00:47:51;;;;;;;5.75;3.40;;;;;;;;;;5097877;28;20177;-84
2023/04/05 00:50:17;;;;;;;6.22;3.78;;;;;;;;;;5102250;28;20048;-86
2023/04/05 00:52:42;;;;;;;6.80;3.60;;;;;;;;;;5088374;28;20052;-86
2023/04/05 00:55:09;;;;;;;5.95;3.53;;;;;;;;;;5083191;28;20036;-86
2023/04/05 00:57:37;;;;;;;6.80;3.40;;;;;;;;;;5064924;28;20047;-86
2023/04/05 01:00:08;;;;;;;6.07;3.17;;;;;;;;;;5065402;28;20032;-85
2023/04/05 01:02:38;;;;;;;4.72;3.00;;;;;;;;;;5096431;28;20106;-87
2023/04/05 01:05:08;;;;;;;5.72;3.28;;;;;;;;;;5085990;28;20469;-87
2023/04/05 01:07:46;;;;;;;;;;;;;;;;;;5084622;28;20035;-86
2023/04/05 01:10:12;;;;;;;5.47;3.03;;;;;;;;;;5120669;28;19912;-84
2023/04/05 01:12:38;;;;;;;5.30;2.83;;;;;;;;;;5099587;28;20042;-84
2023/04/05 01:15:04;;;;;;;6.65;3.60;;;;;;;;;;5077734;28;20040;-86
2023/04/05 01:17:35;;;;;;;5.82;3.30;;;;;;;;;;5081621;28;20036;-86
2023/04/05 01:20:07;;;;;;;5.03;2.80;;;;;;;;;;5079155;28;20109;-85
2023/04/05 01:23:05;;;;;;;3.53;2.38;;;;;;;;;;5097329;28;20043;-87
2023/04/05 01:25:51;;;;;;;4.40;2.65;;;;;;;;;;5079155;28;20035;-86
2023/04/05 01:28:35;;;;;;;6.05;3.38;;;;;;;;;;5096830;28;20038;-87
2023/04/05 01:31:28;;;;;;;5.45;3.00;;;;;;;;;;5097297;28;20047;-85
2023/04/05 01:34:34;;;;;;;6.20;3.08;;;;;;;;;;5077957;28;20051;-85
2023/04/05 01:37:05;;;;;;;7.25;3.60;;;;;;;;;;5006498;28;20050;-87
2023/04/05 01:39:31;;;;;;;7.63;4.30;;;;;;;;;;5062624;28;20461;-85
2023/04/05 01:42:00;;;;;;;7.80;3.33;;;;;;;;;;5079076;28;20077;-85
2023/04/05 01:44:27;;;;;;;5.57;3.25;;;;;;;;;;5079213;28;20055;-86
2023/04/05 01:46:52;;;;;;;5.35;3.10;;;;;;;;;;5079131;28;20024;-85
2023/04/05 01:49:18;;;;;;;7.50;3.38;;;;;;;;;;5078917;28;20454;-85
2023/04/05 01:51:43;;;;;;;5.70;3.70;;;;;;;;;;5062398;28;20032;-87
2023/04/05 01:54:09;;;;;;;5.68;3.50;;;;;;;;;;5097190;28;20031;-85
2023/04/05 01:56:34;;;;;;;6.22;3.60;;;;;;;;;;5100035;28;20028;-86
2023/04/05 01:59:00;;;;;;;7.75;3.70;;;;;;;;;;5098085;28;20082;-87
2023/04/05 02:01:25;;;;;;;6.53;3.75;;;;;;;;;;5078379;28;20097;-84
2023/04/05 02:03:51;;;;;;;6.82;3.70;;;;;;;;;;5078837;28;20036;-87
2023/04/05 02:06:16;;;;;;;7.93;3.70;;;;;;;;;;5096380;28;20035;-86
2023/04/05 02:08:42;;;;;;;8.73;3.97;;;;;;;;;;5096480;28;20032;-85
2023/04/05 02:11:07;;;;;;;7.07;4.07;;;;;;;;;;5079366;28;20036;-86
2023/04/05 02:13:33;;;;;;;6.57;3.92;;;;;;;;;;5096252;28;20068;-85
2023/04/05 02:15:58;;;;;;;5.80;3.35;;;;;;;;;;5096282;28;20264;-84
2023/04/05 02:18:28;;;;;;;6.88;3.75;;;;;;;;;;5112124;28;20071;-85
2023/04/05 02:21:03;;;;;;;6.10;3.95;;;;;;;;;;5078862;28;20056;-85
2023/04/05 02:23:29;;;;;;;7.97;4.00;;;;;;;;;;5077988;28;20052;-86
2023/04/05 02:25:55;;;;;;;5.72;3.10;;;;;;;;;;5095824;28;20464;-84
2023/04/05 02:28:20;;;;;;;8.65;3.80;;;;;;;;;;5078032;28;20020;-85
2023/04/05 02:30:46;;;;;;;6.45;3.35;;;;;;;;;;5079981;28;20369;-85
2023/04/05 02:33:11;;;;;;;6.10;3.90;;;;;;;;;;5077939;28;20051;-85
2023/04/05 02:35:37;;;;;;;6.57;3.72;;;;;;;;;;5060947;28;20024;-86
2023/04/05 02:38:03;;;;;;;6.93;3.88;;;;;;;;;;5083301;28;20036;-84
2023/04/05 02:40:29;;;;;;;7.43;3.80;;;;;;;;;;5085894;28;20032;-85
2023/04/05 02:42:54;;;;;;;7.40;4.10;;;;;;;;;;5077714;28;20043;-84
2023/04/05 02:45:20;;;;;;;8.07;3.83;;;;;;;;;;5096208;28;20396;-86
2023/04/05 02:47:45;;;;;;;4.95;3.35;;;;;;;;;;5097132;28;20036;-85
2023/04/05 02:50:11;;;;;;;7.85;3.65;;;;;;;;;;5061241;28;20040;-84
2023/04/05 02:52:36;;;;;;;6.60;3.75;;;;;;;;;;5077133;28;20036;-85
2023/04/05 02:55:05;;;;;;;5.72;3.58;;;;;;;;;;5095419;28;20596;-85
2023/04/05 02:57:31;;;;;;;9.77;4.15;;;;;;;;;;5077186;28;20040;-87
2023/04/05 02:59:57;;;;;;;5.57;3.75;;;;;;;;;;5092481;28;20096;-88
2023/04/05 03:02:22;;;;;;;7.95;4.38;;;;;;;;;;5077263;28;20032;-85
2023/04/05 03:04:51;;;;;;;7.30;4.45;;;;;;;;;;5096637;28;20032;-86
2023/04/05 03:07:17;;;;;;;8.57;4.35;;;;;;;;;;5099114;28;20054;-85
2023/04/05 03:09:45;;;;;;;7.50;4.15;;;;;;;;;;5106182;28;20093;-85
2023/04/05 03:12:10;;;;;;;8.15;3.42;;;;;;;;;;5089438;28;20101;-85
2023/04/05 03:14:37;;;;;;;7.00;3.80;;;;;;;;;;5085495;28;20028;-86
2023/04/05 03:17:02;;;;;;;7.25;3.97;;;;;;;;;;5076980;28;20035;-85
2023/04/05 03:19:28;;;;;;;10.27;5.00;;;;;;;;;;5047032;28;20016;-84
2023/04/05 03:21:53;;;;;;;7.97;4.13;;;;;;;;;;5070333;28;20115;-84
2023/04/05 03:24:20;;;;;;;6.65;4.15;;;;;;;;;;5077764;28;20381;-84
2023/04/05 03:26:46;;;;;;;8.82;4.60;;;;;;;;;;5095137;28;20119;-85
2023/04/05 03:29:11;;;;;;;8.10;4.30;;;;;;;;;;5078225;28;20031;-85
2023/04/05 03:31:37;;;;;;;7.50;4.20;;;;;;;;;;5077568;28;20032;-83
2023/04/05 03:34:02;;;;;;;8.25;4.18;;;;;;;;;;5076611;28;20081;-87
2023/04/05 03:36:29;;;;;;;9.27;5.00;;;;;;;;;;5094263;28;20112;-86
2023/04/05 03:38:55;;;;;;;10.00;4.35;;;;;;;;;;5094378;28;20043;-87
2023/04/05 03:41:21;;;;;;;11.60;4.78;;;;;;;;;;5100847;28;20024;-84
2023/04/05 03:43:48;;;;;;;11.93;5.60;;;;;;;;;;5083232;28;20046;-84
2023/04/05 03:46:13;;;;;;;9.60;4.43;;;;;;;;;;5059707;28;20533;-86
2023/04/05 03:48:39;;;;;;;10.10;4.90;;;;;;;;;;5076440;28;20143;-85
2023/04/05 03:51:05;;;;;;;7.07;3.65;;;;;;;;;;5076364;28;20024;-86
2023/04/05 03:53:30;;;;;;;12.27;4.63;;;;;;;;;;5076635;28;20012;-87
2023/04/05 03:55:56;;;;;;;7.50;4.20;;;;;;;;;;5094678;28;20473;-88
2023/04/05 03:58:21;;;;;;;7.88;3.92;;;;;;;;;;5077975;28;20035;-84
2023/04/05 04:00:47;;;;;;;12.75;5.28;;;;;;;;;;5087444;28;20053;-85
2023/04/05 04:03:13;;;;;;;8.63;4.47;;;;;;;;;;5088065;28;20035;-85
2023/04/05 04:05:39;;;;;;;7.10;4.07;;;;;;;;;;5084734;28;20042;-86
2023/04/05 04:08:05;;;;;;;6.60;4.03;;;;;;;;;;5098058;28;20107;-85
2023/04/05 04:10:30;;;;;;;7.60;4.40;;;;;;;;;;5094586;28;20032;-86
2023/04/05 04:12:56;;;;;;;7.80;4.18;;;;;;;;;;5075617;28;20036;-87
2023/04/05 04:15:21;;;;;;;8.18;4.55;;;;;;;;;;5094420;28;20039;-85
2023/04/05 04:17:47;;;;;;;9.48;4.38;;;;;;;;;;5094345;28;20035;-86
2023/04/05 04:20:13;;;;;;;9.40;4.75;;;;;;;;;;5095721;28;20088;-87
2023/04/05 04:22:39;;;;;;;7.88;4.15;;;;;;;;;;5118795;28;20075;-83
2023/04/05 04:25:09;;;;;;;8.63;4.72;;;;;;;;;;5132616;28;20039;-87
2023/04/05 04:27:38;;;;;;;6.65;4.18;;;;;;;;;;5097250;28;20031;-86
2023/04/05 04:30:09;;;;;;;7.45;4.38;;;;;;;;;;5098299;28;20048;-86
2023/04/05 04:32:54;;;;;;;7.05;4.18;;;;;;;;;;5095751;28;20475;-85
2023/04/05 04:35:24;;;;;;;9.15;4.72;;;;;;;;;;5081338;28;20455;-88
2023/04/05 04:38:03;;;;;;;9.23;5.22;;;;;;;;;;5112800;28;20491;-79
2023/04/05 04:40:38;;;;;;;8.30;4.15;;;;;;;;;;5112489;28;20035;-78
2023/04/05 04:43:15;;;;;;;10.25;4.50;;;;;;;;;;5092637;28;20029;-78
2023/04/05 04:45:47;;;;;;;7.65;4.05;;;;;;;;;;5071181;28;20025;-81
2023/04/05 04:48:17;;;;;;;7.38;4.30;;;;;;;;;;5059070;28;20505;-79
2023/04/05 04:50:44;;;;;;;9.10;4.22;;;;;;;;;;5054156;28;20040;-79
2023/04/05 04:53:21;;;;;;;7.80;4.70;;;;;;;;;;5077331;28;20064;-80
2023/04/05 04:55:49;;;;;;;7.15;4.03;;;;;;;;;;5056675;28;20048;-82
2023/04/05 04:58:39;;;;;;;6.80;3.97;;;;;;;;;;5079563;28;20067;-78
2023/04/05 05:01:11;;;;;;;8.30;3.97;;;;;;;;;;5083177;28;20032;-79
2023/04/05 05:03:39;;;;;;;7.53;4.30;;;;;;;;;;5080378;28;20066;-80
2023/04/05 05:06:04;;;;;;;10.35;4.75;;;;;;;;;;5076155;28;20032;-79
2023/04/05 05:08:30;;;;;;;10.07;4.82;;;;;;;;;;5048840;28;20035;-80
2023/04/05 05:10:56;;;;;;;9.77;5.32;;;;;;;;;;5058142;28;20032;-80
2023/04/05 05:13:21;;;;;;;9.68;5.40;;;;;;;;;;5055959;28;20029;-79
2023/04/05 05:15:47;;;;;;;9.10;4.63;;;;;;;;;;5077851;28;20063;-79
2023/04/05 05:18:16;;;;;;;8.20;4.32;;;;;;;;;;5262947;23;20056;-85
2023/04/05 05:20:42;;;;;;;9.63;4.85;;;;;;;;;;5095045;28;20123;-84
2023/04/05 05:23:10;;;;;;;12.25;5.75;;;;;;;;;;5071043;28;20147;-86
2023/04/05 05:25:35;;;;;;;11.07;5.35;;;;;;;;;;5083073;28;20052;-86
2023/04/05 05:28:03;;;;;;;10.75;5.95;;;;;;;;;;5047133;28;20400;-83
2023/04/05 05:30:30;;;;;;;10.77;5.25;;;;;;;;;;5069327;28;20192;-86
2023/04/05 05:32:57;;;;;;;9.60;5.00;;;;;;;;;;5087341;28;20040;-85
2023/04/05 05:35:22;;;;;;;12.25;5.68;;;;;;;;;;5093070;28;20106;-85
2023/04/05 05:37:48;;;;;;;11.00;5.13;;;;;;;;;;5064701;28;20043;-84
2023/04/05 05:43:23;;;;;;;8.40;4.72;;;;;;;;;;5077943;23;20056;-83
2023/04/05 05:45:53;;;;;;;9.32;5.30;;;;;;;;;;5079672;28;20056;-85
2023/04/05 05:48:18;;;;;;;12.02;5.18;;;;;;;;;;5082412;28;20034;-85
2023/04/05 05:50:48;;;;;;;10.77;5.15;;;;;;;;;;5078452;28;20051;-85
2023/04/05 05:53:14;;;;;;;10.25;5.18;;;;;;;;;;5069234;28;20036;-83
2023/04/05 05:55:40;;;;;;;11.00;5.22;;;;;;;;;;5069780;28;20457;-84
2023/04/05 05:58:06;;;;;;;12.20;5.68;;;;;;;;;;5065868;28;20029;-83
2023/04/05 06:00:32;;;;;;;10.63;4.72;;;;;;;;;;5066585;28;20028;-83
2023/04/05 06:02:57;;;;;;;8.73;4.30;;;;;;;;;;5064355;28;20038;-85
2023/04/05 06:05:24;;;;;;;10.27;4.88;;;;;;;;;;5072450;28;20516;-84
2023/04/05 06:07:49;;;;;;;9.57;4.65;;;;;;;;;;5074008;28;20028;-86
2023/04/05 06:10:15;;;;;;;8.90;4.45;;;;;;;;;;5067095;28;20697;-84
2023/04/05 06:12:40;;;;;;;9.55;4.43;;;;;;;;;;5069767;28;20037;-84
2023/04/05 06:15:07;;;;;;;8.07;4.03;;;;;;;;;;5053376;28;20083;-83
2023/04/05 06:17:33;;;;;;;7.95;4.65;;;;;;;;;;5041694;28;20048;-85
2023/04/05 06:20:00;;;;;;;8.43;5.07;;;;;;;;;;5070075;28;20044;-84
2023/04/05 06:22:26;;;;;;;11.20;5.38;;;;;;;;;;5072566;28;20039;-84
2023/04/05 06:24:51;;;;;;;9.55;5.25;;;;;;;;;;5072459;28;20101;-84
2023/04/05 06:27:20;;;;;;;7.32;4.15;;;;;;;;;;5061852;28;20070;-83
2023/04/05 06:29:46;;;;;;;8.63;3.75;;;;;;;;;;5063073;28;20385;-83
2023/04/05 06:32:11;;;;;;;10.50;3.90;;;;;;;;;;5060717;28;20044;-88
2023/04/05 06:34:47;;;;;;;8.85;5.32;;;;;;;;;;5067211;28;20060;-86
2023/04/05 06:37:13;;;;;;;8.98;4.88;;;;;;;;;;5069599;28;20054;-88
2023/04/05 06:39:46;;;;;;;13.05;5.47;;;;;;;;;;5065913;28;20033;-90
2023/04/05 06:42:17;;;;;;;13.45;5.03;;;;;;;;;;5071954;28;20049;-86
2023/04/05 06:44:54;;;;;;;10.60;5.57;;;;;;;;;;5056981;28;20045;-85
2023/04/05 06:47:20;;;;;;;10.20;4.75;;;;;;;;;;5076122;28;20027;-82
2023/04/05 06:49:46;;;;;;;10.48;4.78;;;;;;;;;;5076878;28;20033;-87
2023/04/05 06:52:11;;;;;;;11.77;5.70;;;;;;;;;;5068480;28;20021;-87
2023/04/05 06:54:38;;;;;;;8.93;4.50;;;;;;;;;;5076262;28;20452;-84
2023/04/05 06:57:06;;;;;;;9.98;5.22;;;;;;;;;;5050147;28;20135;-83
2023/04/05 06:59:32;;;;;;;13.48;5.07;;;;;;;;;;5037966;28;20024;-81
2023/04/05 07:01:58;;;;;;;14.10;5.32;;;;;;;;;;5078506;28;20082;-83
2023/04/05 07:04:25;;;;;;;9.73;5.28;;;;;;;;;;5075656;28;20469;-85
2023/04/05 07:06:53;;;;;;;13.35;5.97;;;;;;;;;;5078118;28;20024;-83
2023/04/05 07:09:19;;;;;;;12.45;5.30;;;;;;;;;;5090308;28;20039;-83
2023/04/05 07:11:45;;;;;;;14.93;5.93;;;;;;;;;;5073955;28;20075;-85
2023/04/05 07:14:10;;;;;;;13.98;6.03;;;;;;;;;;5064843;28;20386;-84
2023/04/05 07:16:36;;;;;;;10.00;5.15;;;;;;;;;;5077119;28;20025;-86
2023/04/05 07:19:11;;;;;;;15.38;7.10;;;;;;;;;;5070751;28;20067;-82
2023/04/05 07:21:37;;;;;;;20.08;8.43;;;;;;;;;;5051640;28;20036;-83
2023/04/05 07:24:06;;;;;;;40.45;10.85;;;;;;;;;;5075735;28;20059;-85
2023/04/05 07:29:30;;;;;;;19.30;8.45;;;;;;;;;;5070911;28;20032;-84
2023/04/05 07:31:58;;;;;;;15.40;6.78;;;;;;;;;;5079143;28;20016;-82
2023/04/05 07:34:24;;;;;;;15.18;7.75;;;;;;;;;;5066115;28;20030;-85
2023/04/05 07:37:13;;;;;;;20.17;8.73;;;;;;;;;;5069991;28;20064;-85
2023/04/05 07:39:47;;;;;;;24.43;9.60;;;;;;;;;;5064603;28;20033;-85
2023/04/05 07:42:12;;;;;;;20.08;9.18;;;;;;;;;;5059303;28;20055;-85
2023/04/05 07:44:38;;;;;;;16.30;7.22;;;;;;;;;;5069057;28;20335;-87
2023/04/05 07:47:03;;;;;;;12.48;6.57;;;;;;;;;;5049151;28;20025;-87
2023/04/05 07:49:29;;;;;;;13.35;6.10;;;;;;;;;;5043750;28;20096;-85
2023/04/05 07:51:57;;;;;;;17.90;7.60;;;;;;;;;;5045094;28;20043;-86
2023/04/05 07:54:23;;;;;;;17.90;8.48;;;;;;;;;;5065457;28;20029;-85
2023/04/05 07:56:56;;;;;;;16.50;7.30;;;;;;;;;;5059565;28;20564;-84
2023/04/05 07:59:23;;;;;;;13.68;6.97;;;;;;;;;;5069081;28;20033;-85
2023/04/05 08:01:49;;;;;;;10.68;5.90;;;;;;;;;;5041685;28;20037;-85
2023/04/05 08:04:14;;;;;;;15.18;7.55;;;;;;;;;;5064036;28;20048;-85
2023/04/05 08:06:45;;;;;;;20.48;8.18;;;;;;;;;;5069703;28;20103;-85
2023/04/05 08:09:10;;;;;;;21.10;9.75;;;;;;;;;;5060533;28;20467;-83
2023/04/05 08:11:36;;;;;;;19.67;8.68;;;;;;;;;;5060219;28;20037;-85
2023/04/05 08:14:02;;;;;;;20.25;9.02;;;;;;;;;;5069954;28;20032;-86
2023/04/05 08:16:27;;;;;;;15.95;7.57;;;;;;;;;;5075341;28;20024;-86
2023/04/05 08:19:25;;;;;;;20.15;9.35;;;;;;;;;;5089086;28;20039;-90
2023/04/05 08:21:51;;;;;;;20.10;9.88;;;;;;;;;;5025710;28;20048;-84
2023/04/05 08:24:17;;;;;;;16.60;8.27;;;;;;;;;;5083750;28;20051;-85
2023/04/05 08:26:49;;;;;;;21.52;9.35;;;;;;;;;;5080452;28;20051;-87
2023/04/05 08:29:15;;;;;;;17.73;7.78;;;;;;;;;;5072620;28;20031;-84
2023/04/05 08:31:41;;;;;;;17.92;8.13;;;;;;;;;;5072118;28;20028;-83
2023/04/05 08:34:26;;;;;;;14.10;6.72;;;;;;;;;;5078272;28;20032;-85
2023/04/05 08:36:52;;;;;;;20.45;8.38;;;;;;;;;;5075944;28;20480;-83
2023/04/05 08:39:18;;;;;;;21.95;8.80;;;;;;;;;;5059554;28;20048;-85
2023/04/05 08:41:49;;;;;;;18.75;9.25;;;;;;;;;;5054793;28;20052;-85
2023/04/05 08:44:18;;;;;;;19.38;9.55;;;;;;;;;;5080287;28;20036;-86
2023/04/05 08:46:44;;;;;;;22.58;9.75;;;;;;;;;;5064074;28;20048;-86
2023/04/05 08:49:10;;;;;;;20.75;10.30;;;;;;;;;;5055146;28;20101;-86
2023/04/05 08:51:42;;;;;;;14.75;7.55;;;;;;;;;;5045479;28;20079;-85
2023/04/05 08:54:08;;;;;;;17.00;7.70;;;;;;;;;;5040428;28;20041;-85
2023/04/05 08:56:34;;;;;;;12.25;6.88;;;;;;;;;;5054678;28;20029;-86
2023/04/05 08:59:51;;;;;;;14.30;7.15;;;;;;;;;;5043337;28;20100;-87
2023/04/05 09:02:18;;;;;;;14.32;6.55;;;;;;;;;;5046490;28;20124;-84
2023/04/05 09:04:43;;;;;;;11.95;6.50;;;;;;;;;;5062138;28;20021;-83
2023/04/05 09:07:09;;;;;;;15.98;6.60;;;;;;;;;;5057501;28;20044;-84
2023/04/05 09:09:35;;;;;;;11.32;6.43;;;;;;;;;;5058341;28;20079;-84
2023/04/05 09:12:03;;;;;;;21.77;7.72;;;;;;;;;;5058930;28;20051;-83
2023/04/05 09:14:29;;;;;;;11.85;6.63;;;;;;;;;;5040324;28;20092;-84
2023/04/05 09:16:54;;;;;;;15.10;7.28;;;;;;;;;;5040535;28;20053;-84
2023/04/05 09:19:20;;;;;;;18.27;8.65;;;;;;;;;;5044804;28;20480;-84
2023/04/05 09:21:59;;;;;;;16.65;9.02;;;;;;;;;;5063048;28;20420;-84
2023/04/05 09:24:39;;;;;;;19.70;8.57;;;;;;;;;;5049455;28;20033;-85
2023/04/05 09:27:06;;;;;;;24.77;10.55;;;;;;;;;;5057951;28;20036;-84
2023/04/05 09:29:31;;;;;;;19.60;8.70;;;;;;;;;;5056654;28;20339;-84
2023/04/05 09:32:00;;;;;;;16.08;7.68;;;;;;;;;;5077676;28;20039;-85
2023/04/05 09:34:29;;;;;;;13.82;7.65;;;;;;;;;;5063113;28;20028;-84
2023/04/05 09:36:54;;;;;;;10.95;6.40;;;;;;;;;;5079847;28;20029;-83
2023/04/05 09:39:22;;;;;;;11.30;6.95;;;;;;;;;;5088584;28;20069;-84
2023/04/05 09:42:13;;;;;;;17.70;7.60;;;;;;;;;;5053325;28;20040;-83
2023/04/05 09:45:09;;;;;;;26.38;9.00;;;;;;;;;;5044375;28;20033;-84
2023/04/05 09:47:34;;;;;;;19.05;8.85;;;;;;;;;;5056215;28;20032;-88
2023/04/05 09:50:14;;;;;;;15.32;7.38;;;;;;;;;;5059541;28;20047;-83
2023/04/05 09:52:40;;;;;;;31.23;12.60;;;;;;;;;;5056893;28;20271;-81
2023/04/05 09:55:07;;;;;;;54.90;20.80;;;;;;;;;;5055088;28;20031;-83
2023/04/05 09:57:34;;;;;;;29.27;10.90;;;;;;;;;;5060790;28;20088;-85
2023/04/05 09:59:59;;;;;;;14.73;7.78;;;;;;;;;;5049848;28;20102;-81
2023/04/05 10:02:35;;;;;;;14.65;8.18;;;;;;;;;;5057711;28;20028;-82
2023/04/05 10:05:12;;;;;;;19.08;9.98;;;;;;;;;;5069696;28;20060;-81
2023/04/05 10:07:41;;;;;;;21.88;9.75;;;;;;;;;;5065455;28;20035;-81
2023/04/05 10:10:11;;;;;;;16.50;8.95;;;;;;;;;;5061712;28;20024;-85
2023/04/05 10:12:37;;;;;;;23.40;10.13;;;;;;;;;;5054015;28;20108;-81
2023/04/05 10:15:04;;;;;;;19.08;9.60;;;;;;;;;;5071249;28;20469;-83
2023/04/05 10:17:54;;;;;;;22.85;10.43;;;;;;;;;;5073518;28;20055;-81
2023/04/05 10:20:23;;;;;;;24.63;11.25;;;;;;;;;;5066568;28;20032;-84
2023/04/05 10:22:58;;;;;;;21.73;11.23;;;;;;;;;;5075250;28;20647;-84
2023/04/05 10:25:34;;;;;;;23.77;11.90;;;;;;;;;;5068165;28;20028;-81
2023/04/05 10:28:04;;;;;;;22.73;9.80;;;;;;;;;;5064808;28;20426;-82
2023/04/05 10:30:34;;;;;;;;;;;;;;;;;;5057406;28;20520;-83
2023/04/05 10:33:11;;;;;;;25.13;11.40;;;;;;;;;;5068480;28;19920;-84
2023/04/05 10:36:11;;;;;;;24.15;12.52;;;;;;;;;;5069688;28;20446;-84
2023/04/05 10:39:01;;;;;;;;;;;;;;;;;;5069774;28;20068;-82
2023/04/05 10:41:26;;;;;;;28.45;13.60;;;;;;;;;;5049658;28;20488;-81
2023/04/05 10:43:56;;;;;;;32.90;12.75;;;;;;;;;;5070646;28;20025;-82
2023/04/05 10:46:21;;;;;;;26.58;12.85;;;;;;;;;;5035845;28;20470;-81
2023/04/05 10:49:02;;;;;;;35.97;14.75;;;;;;;;;;5075654;28;20036;-82
2023/04/05 10:51:45;;;;;;;31.77;14.05;;;;;;;;;;5068052;28;20048;-83
2023/04/05 10:54:10;;;;;;;32.75;13.07;;;;;;;;;;5052196;28;20032;-82
2023/04/05 10:56:36;;;;;;;29.58;14.25;;;;;;;;;;5069848;28;20032;-83
2023/04/05 10:59:02;;;;;;;30.33;12.80;;;;;;;;;;5066243;28;20036;-82
2023/04/05 11:01:45;;;;;;;30.80;13.35;;;;;;;;;;5069259;28;20476;-83
2023/04/05 11:04:14;;;;;;;36.72;15.88;;;;;;;;;;5069274;28;20036;-84
2023/04/05 11:06:41;;;;;;;36.40;15.68;;;;;;;;;;5069307;28;20028;-82
2023/04/05 11:09:10;;;;;;;38.28;16.40;;;;;;;;;;5071890;28;20491;-84
2023/04/05 11:11:39;;;;;;;37.10;16.63;;;;;;;;;;5081118;28;20031;-81
2023/04/05 11:14:35;;;;;;;37.13;17.42;;;;;;;;;;5072837;28;20030;-83
2023/04/05 11:17:02;;;;;;;39.20;16.40;;;;;;;;;;5073741;28;20142;-85
2023/04/05 11:19:45;;;;;;;40.53;15.90;;;;;;;;;;5074406;28;20032;-83
2023/04/05 11:22:14;;;;;;;36.78;16.60;;;;;;;;;;5073487;28;20035;-85
2023/04/05 11:24:52;;;;;;;39.78;17.27;;;;;;;;;;5072656;28;20430;-84
2023/04/05 11:27:29;;;;;;;40.50;16.50;;;;;;;;;;5075155;28;20031;-84
2023/04/05 11:30:04;;;;;;;40.25;16.58;;;;;;;;;;5078795;28;20032;-83
2023/04/05 11:32:41;;;;;;;33.15;15.40;;;;;;;;;;5078426;28;20353;-83
2023/04/05 11:35:14;;;;;;;39.30;16.30;;;;;;;;;;5072132;28;20460;-84
2023/04/05 11:37:59;;;;;;;38.00;14.45;;;;;;;;;;5072675;28;20368;-83
2023/04/05 11:40:39;;;;;;;36.03;14.60;;;;;;;;;;5071258;28;20051;-83
2023/04/05 11:43:06;;;;;;;40.10;16.55;;;;;;;;;;5073532;28;20075;-83
2023/04/05 11:45:32;;;;;;;41.78;17.35;;;;;;;;;;5070522;28;20043;-84
2023/04/05 11:48:08;;;;;;;47.55;17.95;;;;;;;;;;5069864;28;20042;-84
2023/04/05 11:50:34;;;;;;;53.58;21.40;;;;;;;;;;5076810;28;20057;-82
2023/04/05 11:53:15;;;;;;;46.80;18.80;;;;;;;;;;5085841;28;20224;-82
2023/04/05 11:55:45;;;;;;;41.25;15.93;;;;;;;;;;5070121;28;20122;-83
2023/04/05 11:58:20;;;;;;;31.65;13.40;;;;;;;;;;5070819;28;20454;-82
2023/04/05 12:00:45;;;;;;;40.42;16.13;;;;;;;;;;5070729;28;20025;-84
2023/04/05 12:03:14;;;;;;;33.17;15.38;;;;;;;;;;5071629;28;20392;-83
2023/04/05 12:05:52;;;;;;;38.65;15.73;;;;;;;;;;5072174;28;20032;-83
2023/04/05 12:08:18;;;;;;;38.42;17.52;;;;;;;;;;5072529;28;20021;-83
2023/04/05 12:11:05;;;;;;;40.22;17.42;;;;;;;;;;5081603;28;20093;-81
2023/04/05 12:13:36;;;;;;;36.10;14.95;;;;;;;;;;5087720;28;20094;-84
2023/04/05 12:16:03;;;;;;;47.65;19.08;;;;;;;;;;5065577;28;20041;-83
2023/04/05 12:18:32;;;;;;;51.55;19.80;;;;;;;;;;5052638;28;20036;-83
2023/04/05 12:20:58;;;;;;;37.78;16.00;;;;;;;;;;5054112;28;20033;-84
2023/04/05 12:23:24;;;;;;;37.33;15.82;;;;;;;;;;5034618;28;20349;-84
2023/04/05 12:25:49;;;;;;;43.88;17.10;;;;;;;;;;5051612;28;20065;-82
2023/04/05 12:28:15;;;;;;;39.65;15.90;;;;;;;;;;5053338;28;20033;-83
2023/04/05 12:31:09;;;;;;;41.10;15.63;;;;;;;;;;5055465;28;20083;-82
2023/04/05 12:33:36;;;;;;;43.75;16.23;;;;;;;;;;5060139;28;20133;-84
2023/04/05 12:36:04;;;;;;;41.53;15.80;;;;;;;;;;5046898;28;20035;-84
2023/04/05 12:38:30;;;;;;;37.60;15.40;;;;;;;;;;5076675;28;20028;-83
2023/04/05 12:41:00;;;;;;;44.97;18.08;;;;;;;;;;5076070;28;20085;-84
2023/04/05 12:43:25;;;;;;;41.92;16.05;;;;;;;;;;5075057;28;20040;-82
2023/04/05 12:45:55;;;;;;;40.05;16.17;;;;;;;;;;5075285;28;20039;-83
2023/04/05 12:48:22;;;;;;;34.30;14.77;;;;;;;;;;5058551;28;20040;-83
2023/04/05 12:50:50;;;;;;;38.38;16.00;;;;;;;;;;5080987;28;20033;-83
2023/04/05 12:53:20;;;;;;;38.10;16.50;;;;;;;;;;5077211;28;20509;-83
2023/04/05 12:55:52;;;;;;;37.13;16.63;;;;;;;;;;5082864;28;20036;-81
2023/04/05 12:58:19;;;;;;;42.35;17.00;;;;;;;;;;5076338;28;20039;-84
2023/04/05 13:00:44;;;;;;;43.10;17.73;;;;;;;;;;5059430;28;20047;-83
2023/04/05 13:03:19;;;;;;;40.08;16.90;;;;;;;;;;5075799;28;20445;-83
2023/04/05 13:05:48;;;;;;;39.38;15.73;;;;;;;;;;5077101;28;21023;-83
2023/04/05 13:08:14;;;;;;;41.38;16.35;;;;;;;;;;5077149;28;20054;-83
2023/04/05 13:10:40;;;;;;;34.42;14.30;;;;;;;;;;5084235;28;20490;-83
2023/04/05 13:13:05;;;;;;;43.15;16.60;;;;;;;;;;5076204;28;20181;-83
2023/04/05 13:15:31;;;;;;;41.67;16.98;;;;;;;;;;5081757;28;20044;-82
2023/04/05 13:17:56;;;;;;;33.42;14.35;;;;;;;;;;5084033;28;20028;-83
2023/04/05 13:20:22;;;;;;;33.05;12.30;;;;;;;;;;5075792;28;20075;-83
2023/04/05 13:22:47;;;;;;;31.85;11.95;;;;;;;;;;5076074;28;20032;-83
2023/04/05 13:25:14;;;;;;;28.52;13.02;;;;;;;;;;5075735;28;20354;-82
2023/04/05 13:27:39;;;;;;;25.35;11.27;;;;;;;;;;5059593;28;20024;-82
2023/04/05 13:30:05;;;;;;;24.95;12.82;;;;;;;;;;5087327;28;20044;-82
2023/04/05 13:32:32;;;;;;;25.77;11.10;;;;;;;;;;5077115;28;20111;-80
2023/04/05 13:34:57;;;;;;;29.05;13.02;;;;;;;;;;5077032;28;20028;-81
2023/04/05 13:37:23;;;;;;;31.13;13.70;;;;;;;;;;5084286;28;20040;-81
2023/04/05 13:39:48;;;;;;;22.15;10.73;;;;;;;;;;5080169;28;20036;-81
2023/04/05 13:42:13;;;;;;;22.08;10.45;;;;;;;;;;5077069;28;20048;-83
2023/04/05 13:44:39;;;;;;;23.60;10.18;;;;;;;;;;5075070;28;20113;-83
2023/04/05 13:47:04;;;;;;;18.25;9.15;;;;;;;;;;5079235;28;20445;-80
2023/04/05 13:49:30;;;;;;;25.15;10.88;;;;;;;;;;5092899;28;20045;-82
2023/04/05 13:51:55;;;;;;;25.65;11.85;;;;;;;;;;5078300;28;20111;-79
2023/04/05 13:54:21;;;;;;;19.25;9.75;;;;;;;;;;5076850;28;20020;-81
2023/04/05 13:56:46;;;;;;;19.50;9.23;;;;;;;;;;5075274;28;20343;-81
2023/04/05 13:59:15;;;;;;;17.90;9.18;;;;;;;;;;5078889;28;20493;-82
2023/04/05 14:01:41;;;;;;;20.13;8.68;;;;;;;;;;5058750;28;20028;-81
2023/04/05 14:04:07;;;;;;;20.38;9.38;;;;;;;;;;5076412;28;20032;-82
2023/04/05 14:06:32;;;;;;;18.52;8.52;;;;;;;;;;5058775;28;20041;-80
2023/04/05 14:08:58;;;;;;;17.48;9.35;;;;;;;;;;5088586;28;20038;-81
2023/04/05 14:11:23;;;;;;;17.00;8.68;;;;;;;;;;5076474;28;20094;-82
2023/04/05 14:13:49;;;;;;;16.50;8.65;;;;;;;;;;5076240;28;20376;-84
2023/04/05 14:16:14;;;;;;;16.17;7.78;;;;;;;;;;5077141;28;20029;-81
2023/04/05 14:18:40;;;;;;;26.58;10.30;;;;;;;;;;5065766;28;20090;-82
2023/04/05 14:21:05;;;;;;;19.25;8.95;;;;;;;;;;5076086;28;20025;-82
2023/04/05 14:23:31;;;;;;;18.88;9.57;;;;;;;;;;5075897;28;20345;-80
2023/04/05 14:25:56;;;;;;;22.90;11.52;;;;;;;;;;5075681;28;20032;-83
2023/04/05 14:28:22;;;;;;;21.45;9.50;;;;;;;;;;5084872;28;20032;-84
2023/04/05 14:30:48;;;;;;;19.70;10.02;;;;;;;;;;5075537;28;20029;-84
2023/04/05 14:33:14;;;;;;;17.35;8.82;;;;;;;;;;5075764;28;20181;-84
2023/04/05 14:35:41;;;;;;;25.48;11.77;;;;;;;;;;5074442;28;20031;-82
2023/04/05 14:38:06;;;;;;;28.05;11.13;;;;;;;;;;5082566;28;20032;-80
2023/04/05 14:40:31;;;;;;;18.55;10.00;;;;;;;;;;5076942;28;20366;-81
2023/04/05 14:42:57;;;;;;;19.17;9.77;;;;;;;;;;5074223;28;20347;-81
2023/04/05 14:45:25;;;;;;;22.85;11.05;;;;;;;;;;5074907;28;20060;-82
2023/04/05 14:47:51;;;;;;;25.02;11.45;;;;;;;;;;5083888;28;20129;-83
2023/04/05 14:50:17;;;;;;;18.27;10.27;;;;;;;;;;5075142;28;20414;-83